^^
WestSenecaWeather Station Historical Data
 
Daily Summary for April 25, 2017 Units:  English    Metric   Both
Daily Weekly Monthly Yearly Custom
  Current: High: Low: Average:
Temperature: 58.4 °F 65.7 °F 46.4 °F 55 °F
Dew Point: 53.6 °F 56.2 °F 37.4 °F 48.7 °F
Humidity: 84% 94% 64% 80%
Wind Speed: 1.2mph 16.1mph 0.0mph 4.9mph
Wind Gust: 1.2mph 16.1mph - -
WindENE - - ENE
Pressure: 29.81 in 30.02 in 29.81 in -
Precipitation: 0.36 in      
Historical Graphs
 
 
Tabular Data for April 25, 2017
Time Temperature Dew Point Pressure Wind Wind Speed Wind Gust Humidity Rainfall Rate (Hourly) solar
00:01 49.2 °F 37.5 °F 30.02 in ENE 2.3 mph 2.3 mph 64% 0.00 in 0.0 W/m2
00:06 49.0 °F 37.7 °F 30.01 in ENE 3.5 mph 3.5 mph 65% 0.00 in 0.0 W/m2
00:11 48.8 °F 37.6 °F 30.01 in Calm     65% 0.00 in 0.0 W/m2
00:16 48.5 °F 37.7 °F 30.01 in NE 2.3 mph 2.3 mph 66% 0.00 in 0.0 W/m2
00:21 48.2 °F 37.8 °F 30.01 in NE 1.2 mph   67% 0.00 in 0.0 W/m2
00:27 47.9 °F 37.5 °F 30.01 in NE 2.3 mph 2.3 mph 67% 0.00 in 0.0 W/m2
00:32 47.7 °F 37.7 °F 30.01 in NE 2.3 mph 2.3 mph 68% 0.00 in 0.0 W/m2
00:37 47.6 °F 37.6 °F 30.01 in NE 1.2 mph 1.2 mph 68% 0.00 in 0.0 W/m2
00:42 47.4 °F 37.7 °F 30.01 in Calm     69% 0.00 in 0.0 W/m2
00:47 47.2 °F 37.5 °F 30.01 in Calm     69% 0.00 in 0.0 W/m2
00:52 47.1 °F 37.4 °F 30.01 in NE 2.3 mph 2.3 mph 69% 0.00 in 0.0 W/m2
00:54 47.1 °F 37.4 °F 30.01 in NE 1.2 mph   69% 0.00 in 0.0 W/m2
00:59 47.1 °F 37.4 °F 30.01 in NE 2.3 mph 2.3 mph 69% 0.00 in 0.0 W/m2
01:04 47.1 °F 37.4 °F 30.01 in Calm     69% 0.00 in 0.0 W/m2
01:09 47.1 °F 37.4 °F 30.01 in NE 1.2 mph 1.2 mph 69% 0.00 in 0.0 W/m2
01:14 47.0 °F 37.4 °F 30.01 in Calm   0.5 mph 69% 0.00 in 0.0 W/m2
01:19 46.9 °F 37.6 °F 30.01 in NE 2.3 mph 2.3 mph 70% 0.00 in 0.0 W/m2
01:24 46.8 °F 37.5 °F 30.01 in NE 3.5 mph 3.5 mph 70% 0.00 in 0.0 W/m2
01:29 46.8 °F 37.9 °F 30.01 in NE 3.5 mph 3.5 mph 71% 0.00 in 0.0 W/m2
01:34 46.8 °F 37.9 °F 30.01 in ENE 3.5 mph 3.5 mph 71% 0.00 in 0.0 W/m2
01:39 46.9 °F 38.3 °F 30.01 in ENE 3.5 mph 3.5 mph 72% 0.00 in 0.0 W/m2
01:44 46.9 °F 38.3 °F 30.01 in ENE 3.5 mph 3.5 mph 72% 0.00 in 0.0 W/m2
01:49 47.0 °F 38.4 °F 30.01 in NE 4.6 mph 4.6 mph 72% 0.00 in 0.0 W/m2
01:54 46.9 °F 38.3 °F 30.01 in ENE 2.3 mph 2.3 mph 72% 0.00 in 0.0 W/m2
01:59 46.7 °F 38.1 °F 30.00 in ENE 3.5 mph 3.5 mph 72% 0.00 in 0.0 W/m2
02:04 46.5 °F 38.0 °F 30.00 in ENE 2.3 mph 2.3 mph 72% 0.00 in 0.0 W/m2
02:09 46.5 °F 38.3 °F 30.00 in NE 4.6 mph 4.6 mph 73% 0.00 in 0.0 W/m2
02:14 46.5 °F 38.3 °F 30.00 in NE 4.6 mph 4.6 mph 73% 0.00 in 0.0 W/m2
02:19 46.5 °F 38.3 °F 29.99 in NE 3.5 mph 3.5 mph 73% 0.00 in 0.0 W/m2
02:24 46.5 °F 38.3 °F 29.99 in ENE 3.5 mph 3.5 mph 73% 0.00 in 0.0 W/m2
02:29 46.5 °F 38.3 °F 29.99 in ENE 4.6 mph 4.6 mph 73% 0.00 in 0.0 W/m2
02:34 46.5 °F 38.3 °F 29.99 in NE 5.8 mph 5.8 mph 73% 0.00 in 0.0 W/m2
02:39 46.4 °F 38.2 °F 29.99 in East 5.8 mph 5.8 mph 73% 0.00 in 0.0 W/m2
02:44 46.4 °F 38.6 °F 29.99 in NE 5.0 mph 5.0 mph 74% 0.00 in 0.0 W/m2
02:49 46.4 °F 38.6 °F 29.98 in East 4.6 mph 4.6 mph 74% 0.00 in 0.0 W/m2
02:54 46.5 °F 38.7 °F 29.98 in ENE 6.9 mph 6.9 mph 74% 0.00 in 0.0 W/m2
02:59 46.5 °F 38.7 °F 29.98 in ENE 6.9 mph 6.9 mph 74% 0.00 in 0.0 W/m2
03:04 46.6 °F 38.8 °F 29.98 in ENE 4.6 mph 4.6 mph 74% 0.00 in 0.0 W/m2
03:09 46.7 °F 38.9 °F 29.97 in NE 5.8 mph 5.8 mph 74% 0.00 in 0.0 W/m2
03:14 46.7 °F 38.9 °F 29.97 in NE 3.5 mph 3.5 mph 74% 0.00 in 0.0 W/m2
03:19 46.8 °F 38.9 °F 29.97 in ENE 2.3 mph 2.3 mph 74% 0.00 in 0.0 W/m2
03:24 46.8 °F 38.9 °F 29.97 in ENE 3.5 mph 3.5 mph 74% 0.00 in 0.0 W/m2
03:29 47.0 °F 39.1 °F 29.97 in ENE 3.5 mph 3.5 mph 74% 0.00 in 0.0 W/m2
03:34 47.1 °F 39.2 °F 29.97 in ENE 3.5 mph 3.5 mph 74% 0.00 in 0.0 W/m2
03:39 47.3 °F 39.4 °F 29.97 in East 6.0 mph 6.0 mph 74% 0.00 in 0.0 W/m2
03:44 47.5 °F 39.3 °F 29.97 in East 6.9 mph 6.9 mph 73% 0.00 in 0.0 W/m2
03:49 47.6 °F 39.7 °F 29.97 in ENE 3.5 mph 3.5 mph 74% 0.00 in 0.0 W/m2
03:54 47.6 °F 39.7 °F 29.96 in NE 3.5 mph 3.5 mph 74% 0.00 in 0.0 W/m2
04:00 47.7 °F 39.8 °F 29.96 in NE 4.6 mph 4.6 mph 74% 0.00 in 0.0 W/m2
04:05 47.8 °F 39.9 °F 29.96 in NE 3.5 mph 3.5 mph 74% 0.00 in 0.0 W/m2
04:10 47.8 °F 39.9 °F 29.96 in NE 3.5 mph 3.5 mph 74% 0.00 in 0.0 W/m2
04:15 47.8 °F 39.9 °F 29.96 in ENE 2.3 mph 2.3 mph 74% 0.00 in 0.0 W/m2
04:20 47.8 °F 39.9 °F 29.96 in NE 3.5 mph 3.5 mph 74% 0.00 in 0.0 W/m2
04:25 47.9 °F 40.0 °F 29.95 in NE 5.8 mph 5.8 mph 74% 0.00 in 0.0 W/m2
04:30 48.1 °F 40.2 °F 29.95 in ENE 4.6 mph 4.6 mph 74% 0.00 in 0.0 W/m2
04:35 48.2 °F 40.3 °F 29.95 in NE 4.6 mph 4.6 mph 74% 0.00 in 0.0 W/m2
04:40 48.4 °F 40.5 °F 29.95 in NE 3.5 mph 3.5 mph 74% 0.00 in 0.0 W/m2
04:45 48.6 °F 40.3 °F 29.95 in NE 3.5 mph 3.5 mph 73% 0.00 in 0.0 W/m2
04:50 48.8 °F 40.5 °F 29.95 in NE 3.5 mph 3.5 mph 73% 0.00 in 0.0 W/m2
04:55 49.0 °F 40.7 °F 29.95 in NE 3.0 mph 3.0 mph 73% 0.00 in 0.0 W/m2
05:00 49.1 °F 40.8 °F 29.95 in NE 1.2 mph 1.2 mph 73% 0.00 in 0.0 W/m2
05:05 49.2 °F 40.6 °F 29.95 in ENE 3.5 mph 3.5 mph 72% 0.00 in 0.0 W/m2
05:10 49.4 °F 40.7 °F 29.95 in ENE 4.0 mph 4.0 mph 72% 0.00 in 0.0 W/m2
05:15 49.6 °F 40.9 °F 29.95 in ENE 3.5 mph 3.5 mph 72% 0.00 in 0.0 W/m2
05:20 49.7 °F 41.0 °F 29.95 in ENE 4.6 mph 4.6 mph 72% 0.00 in 0.0 W/m2
05:25 49.9 °F 40.9 °F 29.96 in NE 4.6 mph 4.6 mph 71% 0.00 in 0.0 W/m2
05:30 50.0 °F 41.3 °F 29.95 in NE 4.6 mph 4.6 mph 72% 0.00 in 0.0 W/m2
05:35 50.1 °F 41.4 °F 29.95 in East 2.3 mph 2.3 mph 72% 0.00 in 0.0 W/m2
05:40 50.2 °F 41.9 °F 29.95 in ENE 3.5 mph 3.5 mph 73% 0.00 in 0.0 W/m2
05:45 50.1 °F 42.5 °F 29.95 in NE 3.5 mph 3.5 mph 75% 0.00 in 0.0 W/m2
05:50 49.9 °F 42.6 °F 29.95 in ENE 7.0 mph 7.0 mph 76% 0.02 in 0.0 W/m2
05:55 49.7 °F 43.1 °F 29.96 in NE 2.3 mph 2.3 mph 78% 0.03 in 0.0 W/m2
06:00 49.4 °F 43.2 °F 29.96 in East 4.6 mph 4.6 mph 79% 0.04 in 0.0 W/m2
06:05 49.0 °F 43.4 °F 29.96 in NE 3.5 mph 3.5 mph 81% 0.06 in 0.0 W/m2
06:10 48.7 °F 43.5 °F 29.96 in NE 2.3 mph 2.3 mph 82% 0.08 in 0.0 W/m2
06:15 48.5 °F 43.9 °F 29.96 in NE 2.3 mph 2.3 mph 84% 0.08 in 0.0 W/m2
06:20 48.3 °F 44.0 °F 29.96 in NE 3.5 mph 3.5 mph 85% 0.09 in 0.0 W/m2
06:25 48.2 °F 43.9 °F 29.97 in NE 3.5 mph 3.5 mph 85% 0.10 in 0.0 W/m2
06:30 48.0 °F 44.0 °F 29.97 in NE 3.5 mph 3.5 mph 86% 0.11 in 0.0 W/m2
06:35 47.9 °F 44.2 °F 29.97 in NE 3.5 mph 3.5 mph 87% 0.12 in 0.0 W/m2
06:40 47.8 °F 44.4 °F 29.97 in NE 3.5 mph 3.5 mph 88% 0.12 in 0.0 W/m2
06:45 47.8 °F 44.4 °F 29.97 in NE 3.5 mph 3.5 mph 88% 0.13 in 0.0 W/m2
06:50 47.8 °F 44.7 °F 29.97 in NE 3.5 mph 3.5 mph 89% 0.11 in 0.0 W/m2
06:55 47.8 °F 44.7 °F 29.97 in NE 3.5 mph 3.5 mph 89% 0.11 in 0.0 W/m2
07:00 47.9 °F 44.8 °F 29.98 in NE 2.3 mph 2.3 mph 89% 0.10 in 0.0 W/m2
07:05 47.9 °F 45.1 °F 29.98 in NE 2.3 mph 2.3 mph 90% 0.08 in 0.0 W/m2
07:10 47.9 °F 45.1 °F 29.98 in NE 3.5 mph 3.5 mph 90% 0.07 in 0.0 W/m2
07:15 47.9 °F 45.4 °F 29.98 in NE 3.5 mph 3.5 mph 91% 0.08 in 0.0 W/m2
07:20 47.9 °F 45.4 °F 29.97 in NE 3.5 mph 3.5 mph 91% 0.08 in 0.0 W/m2
07:25 47.9 °F 45.4 °F 29.97 in North 4.0 mph 4.0 mph 91% 0.08 in 0.0 W/m2
07:30 47.9 °F 45.4 °F 29.98 in NNE 5.0 mph 5.0 mph 91% 0.09 in 0.0 W/m2
07:35 47.9 °F 45.4 °F 29.98 in NNE 3.5 mph 3.5 mph 91% 0.10 in 0.0 W/m2
07:40 47.8 °F 45.6 °F 29.98 in NNE 4.6 mph 4.6 mph 92% 0.12 in 0.0 W/m2
07:45 47.8 °F 45.6 °F 29.98 in NE 4.6 mph 4.6 mph 92% 0.11 in 0.0 W/m2
07:50 47.8 °F 45.6 °F 29.98 in NE 3.5 mph 3.5 mph 92% 0.12 in 0.0 W/m2
07:55 47.8 °F 45.9 °F 29.98 in NE 8.1 mph 8.1 mph 93% 0.14 in 0.0 W/m2
08:00 47.8 °F 45.9 °F 29.98 in NE 4.6 mph 4.6 mph 93% 0.14 in 0.0 W/m2
08:05 47.8 °F 45.9 °F 29.98 in NE 9.2 mph 9.2 mph 93% 0.15 in 0.0 W/m2
08:10 47.8 °F 45.9 °F 29.98 in NE 6.9 mph 6.9 mph 93% 0.15 in 0.0 W/m2
08:15 47.9 °F 46.0 °F 29.98 in NNE 3.5 mph 3.5 mph 93% 0.14 in 0.0 W/m2
08:20 47.9 °F 46.0 °F 29.98 in ENE 4.6 mph 4.6 mph 93% 0.14 in 0.0 W/m2
08:25 47.9 °F 46.0 °F 29.98 in NE 5.8 mph 5.8 mph 93% 0.14 in 0.0 W/m2
08:30 48.0 °F 46.1 °F 29.98 in NNE 4.6 mph 4.6 mph 93% 0.12 in 0.0 W/m2
08:35 48.0 °F 46.1 °F 29.98 in ENE 9.2 mph 9.2 mph 93% 0.10 in 0.0 W/m2
08:40 48.0 °F 46.4 °F 29.98 in NE 3.5 mph 3.5 mph 94% 0.08 in 0.0 W/m2
08:45 48.1 °F 46.5 °F 29.98 in NE 3.5 mph 3.5 mph 94% 0.09 in 0.0 W/m2
08:50 48.2 °F 46.6 °F 29.98 in North 2.3 mph 2.3 mph 94% 0.08 in 0.0 W/m2
08:55 48.1 °F 46.5 °F 29.98 in NNE 5.8 mph 5.8 mph 94% 0.05 in 0.0 W/m2
09:00 48.2 °F 46.6 °F 29.98 in North 3.5 mph 3.5 mph 94% 0.05 in 0.0 W/m2
09:05 48.3 °F 46.7 °F 29.98 in North 3.5 mph 3.5 mph 94% 0.04 in 0.0 W/m2
09:10 48.5 °F 46.9 °F 29.98 in ENE 4.0 mph 4.0 mph 94% 0.03 in 0.0 W/m2
09:16 48.6 °F 47.0 °F 29.98 in NE 3.5 mph 3.5 mph 94% 0.03 in 0.0 W/m2
09:21 48.7 °F 47.1 °F 29.98 in NNE 4.6 mph 4.6 mph 94% 0.02 in 0.0 W/m2
09:26 48.9 °F 47.2 °F 29.98 in North 4.6 mph 4.6 mph 94% 0.01 in 0.0 W/m2
09:31 49.1 °F 47.4 °F 29.98 in NNE 5.0 mph 5.0 mph 94% 0.01 in 0.0 W/m2
09:36 49.2 °F 47.5 °F 29.98 in NE 6.9 mph 6.9 mph 94% 0.01 in 0.0 W/m2
09:41 49.4 °F 47.7 °F 29.98 in NE 3.5 mph 3.5 mph 94% 0.02 in 0.0 W/m2
09:46 49.6 °F 47.9 °F 29.98 in NE 5.0 mph 5.0 mph 94% 0.01 in 0.0 W/m2
09:51 49.8 °F 48.1 °F 29.98 in NNE 4.0 mph 4.0 mph 94% 0.01 in 0.0 W/m2
09:56 50.0 °F 48.3 °F 29.98 in NNE 4.6 mph 4.6 mph 94% 0.01 in 0.0 W/m2
10:01 50.1 °F 48.4 °F 29.98 in NE 4.6 mph 4.6 mph 94% 0.01 in 0.0 W/m2
10:06 50.4 °F 48.7 °F 29.98 in NE 3.5 mph 3.5 mph 94% 0.01 in 0.0 W/m2
10:11 50.5 °F 48.8 °F 29.98 in NE 6.9 mph 6.9 mph 94% 0.01 in 0.0 W/m2
10:16 50.7 °F 49.0 °F 29.97 in NE 3.5 mph 3.5 mph 94% 0.01 in 0.0 W/m2
10:21 50.7 °F 48.7 °F 29.97 in NNE 6.9 mph 6.9 mph 93% 0.01 in 0.0 W/m2
10:26 50.8 °F 48.8 °F 29.98 in NE 6.9 mph 6.9 mph 93% 0.01 in 0.0 W/m2
10:31 51.2 °F 49.2 °F 29.97 in NE 3.5 mph 3.5 mph 93% 0.01 in 0.0 W/m2
10:36 51.3 °F 49.3 °F 29.97 in North 3.5 mph 3.5 mph 93% 0.01 in 0.0 W/m2
10:41 51.4 °F 49.4 °F 29.97 in NE 3.5 mph 3.5 mph 93% 0.00 in 0.0 W/m2
10:46 51.7 °F 49.7 °F 29.97 in NNE 4.6 mph 4.6 mph 93% 0.00 in 0.0 W/m2
10:51 51.7 °F 49.7 °F 29.97 in ENE 6.9 mph 6.9 mph 93% 0.00 in 0.0 W/m2
10:56 51.9 °F 49.9 °F 29.97 in NE 3.5 mph 3.5 mph 93% 0.00 in 0.0 W/m2
11:01 52.1 °F 50.1 °F 29.97 in NE 4.0 mph 4.0 mph 93% 0.00 in 0.0 W/m2
11:06 52.2 °F 50.2 °F 29.97 in NNE 3.5 mph 3.5 mph 93% 0.00 in 0.0 W/m2
11:11 52.5 °F 50.5 °F 29.97 in NNE 3.5 mph 3.5 mph 93% 0.01 in 0.0 W/m2
11:16 52.6 °F 50.6 °F 29.97 in NE 5.8 mph 5.8 mph 93% 0.01 in 0.0 W/m2
11:21 52.7 °F 50.7 °F 29.97 in NE 3.5 mph 3.5 mph 93% 0.01 in 0.0 W/m2
11:26 52.9 °F 50.9 °F 29.97 in NNE 3.5 mph 3.5 mph 93% 0.01 in 0.0 W/m2
11:31 53.2 °F 51.5 °F 29.97 in NE 3.5 mph 3.5 mph 94% 0.01 in 0.0 W/m2
11:36 53.5 °F 51.8 °F 29.97 in NE 2.3 mph 2.3 mph 94% 0.01 in 0.0 W/m2
11:41 53.5 °F 51.5 °F 29.96 in NE 4.0 mph 4.0 mph 93% 0.01 in 0.0 W/m2
11:46 53.7 °F 51.7 °F 29.96 in NNE 4.0 mph 4.0 mph 93% 0.01 in 0.0 W/m2
11:51 54.0 °F 52.3 °F 29.96 in NE 3.5 mph 3.5 mph 94% 0.02 in 0.0 W/m2
11:56 54.4 °F 52.7 °F 29.96 in NE 4.6 mph 4.6 mph 94% 0.02 in 0.0 W/m2
12:01 54.8 °F 53.1 °F 29.95 in East 2.3 mph 2.3 mph 94% 0.02 in 0.0 W/m2
12:06 55.1 °F 53.1 °F 29.95 in ENE 6.9 mph 6.9 mph 93% 0.02 in 0.0 W/m2
12:11 55.4 °F 53.1 °F 29.95 in East 4.6 mph 4.6 mph 92% 0.01 in 0.0 W/m2
12:16 55.6 °F 52.7 °F 29.95 in East 5.0 mph 5.0 mph 90% 0.01 in 0.0 W/m2
12:21 55.7 °F 52.8 °F 29.95 in East 4.6 mph 4.6 mph 90% 0.01 in 0.0 W/m2
12:26 55.8 °F 52.9 °F 29.95 in ENE 3.5 mph 3.5 mph 90% 0.01 in 0.0 W/m2
12:31 55.9 °F 53.0 °F 29.95 in SE 3.5 mph 3.5 mph 90% 0.01 in 0.0 W/m2
12:36 55.9 °F 52.7 °F 29.94 in SE 3.5 mph 3.5 mph 89% 0.01 in 0.0 W/m2
12:41 56.0 °F 52.8 °F 29.94 in East 3.5 mph 3.5 mph 89% 0.01 in 0.0 W/m2
12:46 56.3 °F 53.4 °F 29.94 in ESE 3.5 mph 3.5 mph 90% 0.01 in 0.0 W/m2
12:51 56.3 °F 53.1 °F 29.93 in ESE 3.5 mph 3.5 mph 89% 0.00 in 0.0 W/m2
12:56 56.4 °F 53.2 °F 29.93 in ENE 5.8 mph 5.8 mph 89% 0.00 in 0.0 W/m2
13:01 56.3 °F 52.8 °F 29.93 in East 6.9 mph 6.9 mph 88% 0.00 in 0.0 W/m2
13:06 56.5 °F 53.6 °F 29.93 in ENE 4.6 mph 4.6 mph 90% 0.00 in 0.0 W/m2
13:11 56.5 °F 53.3 °F 29.93 in East 6.9 mph 6.9 mph 89% 0.00 in 0.0 W/m2
13:16 56.5 °F 53.0 °F 29.92 in NE 10.4 mph 10.4 mph 88% 0.00 in 0.0 W/m2
13:21 56.6 °F 53.4 °F 29.92 in ENE 7.0 mph 7.0 mph 89% 0.00 in 0.0 W/m2
13:26 56.8 °F 53.3 °F 29.92 in East 8.1 mph 8.1 mph 88% 0.00 in 0.0 W/m2
13:31 57.1 °F 53.6 °F 29.92 in ENE 5.0 mph 5.0 mph 88% 0.00 in 0.0 W/m2
13:36 57.7 °F 54.5 °F 29.91 in ESE 4.0 mph 4.0 mph 89% 0.00 in 0.0 W/m2
13:41 58.0 °F 54.2 °F 29.91 in ENE 5.0 mph 5.0 mph 87% 0.00 in 0.0 W/m2
13:46 58.6 °F 54.7 °F 29.91 in East 9.2 mph 9.2 mph 87% 0.00 in 0.0 W/m2
13:51 59.1 °F 54.6 °F 29.91 in ENE 6.9 mph 6.9 mph 85% 0.00 in 0.0 W/m2
13:56 59.4 °F 54.9 °F 29.91 in East 8.1 mph 8.1 mph 85% 0.00 in 0.0 W/m2
14:01 59.7 °F 54.9 °F 29.90 in East 3.5 mph 3.5 mph 84% 0.00 in 0.0 W/m2
14:06 60.0 °F 54.5 °F 29.90 in East 9.2 mph 9.2 mph 82% 0.00 in 0.0 W/m2
14:11 60.2 °F 54.7 °F 29.90 in SE 9.2 mph 9.2 mph 82% 0.00 in 0.0 W/m2
14:16 60.4 °F 54.5 °F 29.90 in East 3.5 mph 3.5 mph 81% 0.00 in 0.0 W/m2
14:21 60.6 °F 54.7 °F 29.90 in East 7.0 mph 7.0 mph 81% 0.00 in 0.0 W/m2
14:26 60.9 °F 55.4 °F 29.89 in East 8.0 mph 8.0 mph 82% 0.00 in 0.0 W/m2
14:31 60.9 °F 55.0 °F 29.89 in East 8.1 mph 8.1 mph 81% 0.00 in 0.0 W/m2
14:36 60.8 °F 54.9 °F 29.89 in East 10.4 mph 10.4 mph 81% 0.00 in 0.0 W/m2
14:41 60.8 °F 54.6 °F 29.89 in East 10.4 mph 10.4 mph 80% 0.00 in 0.0 W/m2
14:46 60.9 °F 55.0 °F 29.89 in ENE 4.6 mph 4.6 mph 81% 0.00 in 0.0 W/m2
14:51 61.1 °F 55.2 °F 29.89 in NE 6.9 mph 6.9 mph 81% 0.00 in 0.0 W/m2
14:56 61.2 °F 55.0 °F 29.88 in ENE 8.1 mph 8.1 mph 80% 0.00 in 0.0 W/m2
15:01 61.4 °F 55.2 °F 29.88 in ENE 6.9 mph 6.9 mph 80% 0.00 in 0.0 W/m2
15:06 61.7 °F 55.8 °F 29.88 in ENE 5.8 mph 5.8 mph 81% 0.00 in 0.0 W/m2
15:11 62.1 °F 55.5 °F 29.88 in ENE 5.0 mph 5.0 mph 79% 0.00 in 0.0 W/m2
15:16 62.2 °F 55.6 °F 29.88 in East 4.6 mph 4.6 mph 79% 0.00 in 0.0 W/m2
15:21 62.5 °F 55.9 °F 29.87 in NNE 6.9 mph 6.9 mph 79% 0.00 in 0.0 W/m2
15:26 62.6 °F 55.6 °F 29.87 in NE 6.9 mph 6.9 mph 78% 0.00 in 0.0 W/m2
15:31 62.6 °F 55.3 °F 29.87 in ENE 9.2 mph 9.2 mph 77% 0.00 in 0.0 W/m2
15:36 62.6 °F 54.9 °F 29.87 in NE 6.9 mph 6.9 mph 76% 0.00 in 0.0 W/m2
15:41 62.6 °F 54.9 °F 29.87 in East 8.1 mph 8.1 mph 76% 0.00 in 0.0 W/m2
15:46 62.7 °F 55.4 °F 29.87 in East 6.9 mph 6.9 mph 77% 0.00 in 0.0 W/m2
15:51 62.9 °F 55.2 °F 29.87 in ENE 8.1 mph 8.1 mph 76% 0.00 in 0.0 W/m2
15:56 62.9 °F 55.2 °F 29.87 in East 8.1 mph 8.1 mph 76% 0.00 in 0.0 W/m2
16:01 63.0 °F 55.3 °F 29.87 in ENE 7.0 mph 7.0 mph 76% 0.00 in 0.0 W/m2
16:06 63.0 °F 55.3 °F 29.87 in ENE 4.6 mph 4.6 mph 76% 0.00 in 0.0 W/m2
16:11 63.1 °F 55.4 °F 29.87 in NNE 5.8 mph 5.8 mph 76% 0.00 in 0.0 W/m2
16:16 63.0 °F 55.3 °F 29.86 in NNE 6.0 mph 6.0 mph 76% 0.00 in 0.0 W/m2
16:21 63.0 °F 55.3 °F 29.86 in North 6.0 mph 6.0 mph 76% 0.00 in 0.0 W/m2
16:26 62.9 °F 55.6 °F 29.86 in NE 3.5 mph 3.5 mph 77% 0.00 in 0.0 W/m2
16:31 63.0 °F 55.7 °F 29.86 in NNE 3.0 mph 3.0 mph 77% 0.00 in 0.0 W/m2
16:36 63.0 °F 55.7 °F 29.86 in North 6.0 mph 6.0 mph 77% 0.00 in 0.0 W/m2
16:41 63.0 °F 55.7 °F 29.86 in North 5.0 mph 5.0 mph 77% 0.00 in 0.0 W/m2
16:46 63.0 °F 55.7 °F 29.86 in NNE 8.1 mph 8.1 mph 77% 0.00 in 0.0 W/m2
16:51 63.0 °F 55.7 °F 29.86 in NNW 4.6 mph 4.6 mph 77% 0.00 in 0.0 W/m2
16:56 63.0 °F 55.7 °F 29.86 in North 6.9 mph 6.9 mph 77% 0.00 in 0.0 W/m2
17:01 63.2 °F 55.9 °F 29.86 in North 6.9 mph 6.9 mph 77% 0.00 in 0.0 W/m2
17:06 63.2 °F 55.9 °F 29.86 in NNE 4.6 mph 4.6 mph 77% 0.00 in 0.0 W/m2
17:11 63.3 °F 55.6 °F 29.85 in ENE 8.1 mph 8.1 mph 76% 0.00 in 0.0 W/m2
17:16 63.3 °F 55.6 °F 29.85 in ENE 8.1 mph 8.1 mph 76% 0.00 in 0.0 W/m2
17:21 63.4 °F 55.7 °F 29.85 in ENE 5.0 mph 5.0 mph 76% 0.00 in 0.0 W/m2
17:26 63.5 °F 55.4 °F 29.85 in East 8.1 mph 8.1 mph 75% 0.00 in 0.0 W/m2
17:31 63.7 °F 55.3 °F 29.85 in NNE 9.2 mph 9.2 mph 74% 0.00 in 0.0 W/m2
17:36 63.8 °F 55.4 °F 29.85 in ENE 6.9 mph 6.9 mph 74% 0.00 in 0.0 W/m2
17:41 64.0 °F 55.5 °F 29.85 in ENE 9.0 mph 9.0 mph 74% 0.00 in 0.0 W/m2
17:46 64.0 °F 55.5 °F 29.84 in NNE 10.4 mph 10.4 mph 74% 0.00 in 0.0 W/m2
17:49 64.0 °F 55.5 °F 29.84 in ENE 9.0 mph 9.0 mph 74% 0.00 in 0.0 W/m2
17:54 64.3 °F 55.5 °F 29.84 in North 10.4 mph 10.4 mph 73% 0.00 in 0.0 W/m2
17:59 64.7 °F 55.5 °F 29.84 in ENE 11.5 mph 11.5 mph 72% 0.00 in 0.0 W/m2
18:04 64.8 °F 55.6 °F 29.84 in East 11.5 mph 11.5 mph 72% 0.00 in 0.0 W/m2
18:09 65.1 °F 55.8 °F 29.84 in NE 9.2 mph 9.2 mph 72% 0.00 in 0.0 W/m2
18:14 65.5 °F 56.2 °F 29.83 in NE 8.1 mph 8.1 mph 72% 0.00 in 0.0 W/m2
18:19 65.6 °F 55.9 °F 29.83 in NE 16.1 mph 16.1 mph 71% 0.00 in 0.0 W/m2
18:29 65.7 °F 56.0 °F 29.83 in ENE 8.1 mph 8.1 mph 71% 0.00 in 0.0 W/m2
18:34 65.5 °F 55.8 °F 29.83 in NE 11.5 mph 11.5 mph 71% 0.00 in 0.0 W/m2
18:39 65.1 °F 55.5 °F 29.82 in NE 9.2 mph 9.2 mph 71% 0.00 in 0.0 W/m2
18:44 65.0 °F 55.8 °F 29.82 in ENE 5.8 mph 5.8 mph 72% 0.00 in 0.0 W/m2
18:49 65.0 °F 55.8 °F 29.82 in NE 4.6 mph 4.9 mph 72% 0.00 in 0.0 W/m2
18:54 64.9 °F 55.7 °F 29.82 in NE 9.0 mph 9.0 mph 72% 0.00 in 0.0 W/m2
18:59 64.7 °F 55.5 °F 29.82 in NNE 5.8 mph 5.8 mph 72% 0.00 in 0.0 W/m2
19:04 64.6 °F 55.4 °F 29.82 in ENE 10.4 mph 10.4 mph 72% 0.00 in 0.0 W/m2
19:09 64.5 °F 55.7 °F 29.82 in ENE 4.6 mph 4.6 mph 73% 0.00 in 0.0 W/m2
19:14 64.4 °F 55.6 °F 29.82 in ENE 10.4 mph 10.4 mph 73% 0.00 in 0.0 W/m2
19:19 64.3 °F 55.5 °F 29.82 in ENE 4.6 mph 4.6 mph 73% 0.00 in 0.0 W/m2
19:24 64.1 °F 55.3 °F 29.81 in ENE 6.9 mph 6.9 mph 73% 0.00 in 0.0 W/m2
19:29 64.1 °F 55.3 °F 29.82 in East 5.0 mph 5.0 mph 73% 0.00 in 0.0 W/m2
19:39 64.5 °F 53.3 °F 29.81 in ESE 9.2 mph 9.2 mph 67% 0.00 in 0.0 W/m2
19:44 64.7 °F 53.5 °F 29.82 in ENE 11.0 mph 11.0 mph 67% 0.00 in 0.0 W/m2
19:49 64.7 °F 53.1 °F 29.82 in East 6.9 mph 6.9 mph 66% 0.00 in 0.0 W/m2
19:54 64.6 °F 53.0 °F 29.81 in ESE 5.0 mph 5.0 mph 66% 0.00 in 0.0 W/m2
19:59 64.4 °F 53.2 °F 29.81 in East 3.5 mph 3.5 mph 67% 0.00 in 0.0 W/m2
20:04 64.3 °F 53.1 °F 29.81 in ENE 8.0 mph 8.0 mph 67% 0.00 in 0.0 W/m2
20:09 64.2 °F 53.0 °F 29.82 in SE 4.0 mph 4.0 mph 67% 0.00 in 0.0 W/m2
20:14 64.0 °F 52.8 °F 29.81 in East 9.0 mph 9.0 mph 67% 0.00 in 0.0 W/m2
20:19 63.9 °F 52.7 °F 29.81 in ENE 4.6 mph 4.6 mph 67% 0.00 in 0.0 W/m2
20:24 63.9 °F 52.7 °F 29.82 in ESE 8.1 mph 8.1 mph 67% 0.00 in 0.0 W/m2
20:29 63.8 °F 53.0 °F 29.82 in SE 4.6 mph 4.6 mph 68% 0.00 in 0.0 W/m2
20:31 63.7 °F 52.9 °F 29.82 in East 5.0 mph 5.0 mph 68% 0.00 in 0.0 W/m2
20:36 63.5 °F 52.7 °F 29.82 in SSE 8.1 mph 8.1 mph 68% 0.00 in 0.0 W/m2
20:41 63.5 °F 52.7 °F 29.82 in East 4.6 mph 4.6 mph 68% 0.00 in 0.0 W/m2
20:46 63.4 °F 53.0 °F 29.82 in ESE 3.5 mph 3.5 mph 69% 0.00 in 0.0 W/m2
20:51 63.2 °F 52.9 °F 29.82 in ESE 7.0 mph 7.0 mph 69% 0.00 in 0.0 W/m2
20:56 63.1 °F 52.8 °F 29.82 in SE 4.6 mph 4.6 mph 69% 0.00 in 0.0 W/m2
21:01 63.1 °F 52.8 °F 29.82 in ESE 9.2 mph 9.2 mph 69% 0.00 in 0.0 W/m2
21:06 63.0 °F 52.7 °F 29.82 in SE 3.5 mph 3.5 mph 69% 0.00 in 0.0 W/m2
21:11 62.9 °F 53.0 °F 29.83 in East 2.3 mph 2.3 mph 70% 0.00 in 0.0 W/m2
21:16 62.8 °F 52.9 °F 29.83 in East 2.3 mph 2.3 mph 70% 0.00 in 0.0 W/m2
21:21 62.7 °F 53.2 °F 29.83 in ESE 3.0 mph 3.0 mph 71% 0.00 in 0.0 W/m2
21:26 62.5 °F 53.0 °F 29.83 in SE 3.5 mph 3.5 mph 71% 0.00 in 0.0 W/m2
21:31 62.5 °F 53.0 °F 29.83 in SE 6.9 mph 6.9 mph 71% 0.00 in 0.0 W/m2
21:36 62.2 °F 53.1 °F 29.83 in SSE 4.6 mph 4.6 mph 72% 0.00 in 0.0 W/m2
21:41 62.0 °F 53.2 °F 29.83 in SSE 10.0 mph 10.0 mph 73% 0.00 in 0.0 W/m2
21:46 61.6 °F 53.2 °F 29.84 in ESE 6.9 mph 6.9 mph 74% 0.00 in 0.0 W/m2
21:51 61.4 °F 53.0 °F 29.84 in SSE 6.9 mph 6.9 mph 74% 0.00 in 0.0 W/m2
21:56 61.2 °F 53.2 °F 29.83 in ESE 6.9 mph 6.9 mph 75% 0.00 in 0.0 W/m2
22:01 61.1 °F 53.5 °F 29.84 in SSE 3.5 mph 3.5 mph 76% 0.00 in 0.0 W/m2
22:06 60.8 °F 53.9 °F 29.83 in SSE 3.5 mph 3.5 mph 78% 0.00 in 0.0 W/m2
22:11 60.4 °F 53.9 °F 29.83 in SSE 2.3 mph 2.3 mph 79% 0.00 in 0.0 W/m2
22:16 60.1 °F 53.9 °F 29.83 in East 2.3 mph 2.3 mph 80% 0.00 in 0.0 W/m2
22:21 59.9 °F 53.7 °F 29.83 in ESE 3.5 mph 3.5 mph 80% 0.00 in 0.0 W/m2
22:26 59.8 °F 54.0 °F 29.83 in ENE 3.5 mph 3.5 mph 81% 0.00 in 0.0 W/m2
22:32 59.7 °F 53.5 °F 29.83 in ENE 3.5 mph 3.5 mph 80% 0.00 in 0.0 W/m2
22:37 59.6 °F 53.8 °F 29.82 in East 3.5 mph 3.5 mph 81% 0.00 in 0.0 W/m2
22:41 59.5 °F 54.0 °F 29.82 in ENE 2.3 mph 2.3 mph 82% 0.00 in 0.0 W/m2
22:46 59.4 °F 53.9 °F 29.82 in East 3.5 mph 3.5 mph 82% 0.00 in 0.0 W/m2
22:51 59.3 °F 53.8 °F 29.82 in ENE 3.5 mph 3.5 mph 82% 0.00 in 0.0 W/m2
22:56 59.2 °F 53.7 °F 29.82 in ENE 2.3 mph 2.3 mph 82% 0.00 in 0.0 W/m2
23:01 59.0 °F 53.8 °F 29.82 in ENE 3.5 mph 3.5 mph 83% 0.00 in 0.0 W/m2
23:07 59.0 °F 53.8 °F 29.82 in ENE 3.5 mph 3.5 mph 83% 0.00 in 0.0 W/m2
23:11 58.9 °F 53.7 °F 29.82 in ENE 2.3 mph 2.3 mph 83% 0.00 in 0.0 W/m2
23:16 58.9 °F 53.7 °F 29.82 in ENE 2.3 mph 2.3 mph 83% 0.00 in 0.0 W/m2
23:21 58.8 °F 54.0 °F 29.82 in ENE 2.3 mph 2.3 mph 84% 0.00 in 0.0 W/m2
23:26 58.7 °F 53.9 °F 29.81 in ENE 3.5 mph 3.5 mph 84% 0.00 in 0.0 W/m2
23:31 58.6 °F 53.8 °F 29.81 in ENE 2.3 mph 2.3 mph 84% 0.00 in 0.0 W/m2
23:36 58.6 °F 53.8 °F 29.81 in Calm   0.6 mph 84% 0.00 in 0.0 W/m2
23:41 58.5 °F 53.7 °F 29.81 in ENE 3.5 mph 3.5 mph 84% 0.00 in 0.0 W/m2
23:46 58.5 °F 53.7 °F 29.81 in ENE 2.3 mph 2.3 mph 84% 0.00 in 0.0 W/m2
23:51 58.4 °F 53.6 °F 29.81 in ENE 1.2 mph 1.2 mph 84% 0.00 in 0.0 W/m2
west seneca weather
Compliments of Weather Underground - 4 mb